• Join FlightAware (Why Join?)
  • Login
  • US Flag 
04:43AM EDT


 

Airport Tracker/Info


-or-


 

Live Flight TrackerFlight Track Log ✈ OPT732 ✈ 05-May-2013 ✈ KLGA - KGSP

Flight Track Log - Related Links

Times and Time Zones

All times are in EDT time to prevent confusion due to time zone crossing. See the OPT732 flight status page for this flight to view local times or setup timezone preferences in your user account.

Time Position Orientation Groundspeed Altitude Reporting Facility
EDT Latitude Longitude Course Direction KTS MPH feet Rate Location/Type
09:56AM 40.7333 -73.8167 237° Southwest 211 243 3,000  Level New York TRACON
09:57AM 40.7667 -73.8167 360° North 214 246 5,000 1,920 Climbing New York TRACON
09:58AM 40.7833 -73.9000 285° West 246 283 6,900 1,860 Climbing New York TRACON
09:59AM 40.7833 -73.9833 270° West 248 285 8,600 2,820 Climbing New York TRACON
10:00AM 40.7833 -74.0833 270° West 257 296 12,300 2,760 Climbing New York TRACON
10:01AM 40.7667 -74.1667 255° West 271 312 14,200 1,320 Climbing New York TRACON
10:02AM 40.5032 -74.6603 237° Southwest  Level FlightAware Approximate
10:02AM 40.7167 -74.2667 237° Southwest 347 399 15,000  Level New York TRACON
10:04AM 40.6178 -74.4864 239° Southwest 351 404 17,600 1,500 Climbing New York Center
10:05AM 40.5561 -74.5925 233° Southwest 365 420 20,000 2,460 Climbing New York Center
10:06AM 40.4942 -74.7008 233° Southwest 375 432 22,600 2,460 Climbing New York Center
10:07AM 40.4256 -74.8197 233° Southwest 394 453 25,000 2,280 Climbing New York Center
10:08AM 40.3525 -74.9433 232° Southwest 411 473 27,200 2,160 Climbing New York Center
10:09AM 40.2789 -75.0722 233° Southwest 435 501 29,400 2,400 Climbing New York Center
10:10AM 40.2011 -75.2033 232° Southwest 450 518 32,200 2,400 Climbing New York Center
10:11AM 40.1253 -75.3314 232° Southwest 455 524 34,200 1,680 Climbing New York Center
10:12AM 40.0428 -75.4697 232° Southwest 470 541 35,500 1,320 Climbing New York Center
10:13AM 39.9600 -75.6078 232° Southwest 482 555 36,900 1,500 Climbing New York Center
10:14AM 39.8753 -75.7453 231° Southwest 489 563 38,600 1,800 Climbing New York Center
10:15AM 39.7925 -75.8772 231° Southwest 489 563 40,600 1,740 Climbing New York Center
10:16AM 39.7117 -76.0064 231° Southwest 479 551 42,200 1,260 Climbing New York Center
10:18AM 39.6058 -76.1761 231° Southwest 468 539 43,500 780 Climbing Washington Center
10:19AM 39.5239 -76.3044 230° Southwest 463 533 44,000 660 Climbing Washington Center
10:20AM 39.4419 -76.4328 230° Southwest 470 541 44,900 840 Climbing Washington Center
10:21AM 39.3428 -76.5711 227° Southwest 475 547 45,700 720 Climbing Washington Center
10:22AM 39.2647 -76.6986 232° Southwest 475 547 46,400 600 Climbing Washington Center
10:23AM 39.1842 -76.8233 230° Southwest 469 540 46,900 300 Climbing Washington Center
10:24AM 39.1039 -76.9478 230° Southwest 464 534 47,000  Climbing Washington Center
10:25AM 39.0189 -77.0664 227° Southwest 464 534 47,000  Level Washington Center
10:26AM 38.9217 -77.1711 220° Southwest 457 526 47,000  Level Washington Center
10:27AM 38.8244 -77.2783 221° Southwest 457 526 47,000  Level Washington Center
10:28AM 38.7269 -77.3878 221° Southwest 463 533 47,000  Level Washington Center
10:29AM 38.6419 -77.4867 222° Southwest 463 533 47,000  Level Washington Center
10:30AM 38.5525 -77.6067 226° Southwest 463 533 47,000  Level Washington Center
10:31AM 38.4631 -77.7236 226° Southwest 463 533 47,000  Level Washington Center
10:32AM 38.3733 -77.8403 226° Southwest 463 533 47,000  Level Washington Center
10:33AM 38.2836 -77.9539 225° Southwest 463 533 47,000  Level Washington Center
10:34AM 38.1914 -78.0697 225° Southwest 463 533 47,000  Level Washington Center
10:35AM 38.1014 -78.1856 225° Southwest 463 533 47,000  Level Washington Center
10:36AM 38.0111 -78.3036 226° Southwest 463 533 47,000  Level Washington Center
10:37AM 37.9231 -78.4136 225° Southwest 463 533 47,000  Level Washington Center
10:38AM 37.8308 -78.5286 225° Southwest 463 533 47,000 -1,260 Level Washington Center
10:39AM 37.7383 -78.6406 224° Southwest 463 533 44,500 -3,600 Descending Washington Center
10:40AM 37.6411 -78.7653 225° Southwest 469 540 40,000 -3,600 Descending Washington Center
10:41AM 37.5550 -78.8717 224° Southwest 455 524 37,300 -2,760 Descending Washington Center
10:42AM 37.4664 -78.9778 224° Southwest 443 510 34,500 -1,680 Descending Washington Center
10:43AM 37.3778 -79.0836 224° Southwest 443 510 34,000 -300 Descending Washington Center
10:44AM 37.2825 -79.1992 224° Southwest 458 527 34,000  Level Washington Center
10:45AM 37.1911 -79.3281 228° Southwest 480 552 34,000 -180 Level Washington Center
10:46AM 37.1122 -79.4439 230° Southwest 498 573 33,700 -1,140 Descending Washington Center
10:48AM 36.9269 -79.7181 230° Southwest 482 555 30,500 -1,680 Descending Atlanta Center
10:49AM 36.8514 -79.8261 229° Southwest 473 544 28,600 -1,260 Descending Atlanta Center
10:50AM 36.7739 -79.9417 230° Southwest 459 528 28,000 -300 Descending Atlanta Center
10:51AM 36.6964 -80.0542 229° Southwest 448 516 28,000  Level Atlanta Center
10:52AM 36.6206 -80.1642 229° Southwest 437 503 28,000 -120 Level Atlanta Center
10:53AM 36.5303 -80.2744 224° Southwest 424 488 27,800 -660 Descending Atlanta Center
10:54AM 36.4211 -80.3208 199° South 411 473 26,700 -1,200 Descending Atlanta Center
10:55AM 36.3078 -80.3622 196° South 412 474 25,500 -1,200 Descending Atlanta Center
10:56AM 36.1942 -80.4008 195° South 425 489 24,300 -1,200 Descending Atlanta Center
10:57AM 36.0931 -80.4336 195° South 425 489 23,200 -1,320 Descending Atlanta Center
10:58AM 35.9897 -80.4689 195° South 411 473 21,700 -1,500 Descending Atlanta Center
10:59AM 35.8908 -80.5092 198° South 388 447 20,200 -900 Descending Atlanta Center
11:00AM 35.7872 -80.5419 194° South 383 441 20,000 -360 Descending Atlanta Center
11:00AM 35.7325 -80.5953 218° Southwest 381 438 19,700 -720 Descending Atlanta Center
11:01AM 35.7106 -80.6294 232° Southwest 370 426 19,300 -1,020 Descending Atlanta Center
11:02AM 35.6592 -80.7339 239° Southwest 358 412 18,300 -1,200 Descending Atlanta Center
11:03AM 35.6056 -80.8358 237° Southwest 363 418 17,000 -1,620 Descending Atlanta Center
11:04AM 35.5458 -80.9503 237° Southwest 368 423 15,100 -1,380 Descending Atlanta Center
11:05AM 35.4961 -81.0517 239° Southwest 368 423 14,300 -1,080 Descending Atlanta Center
11:06AM 35.4464 -81.1428 236° Southwest 350 403 13,000 -660 Descending Atlanta Center
11:07AM 35.4044 -81.2283 239° Southwest 314 361 13,000 -120 Level Atlanta Center
11:08AM 35.3564 -81.3164 236° Southwest 309 356 12,800 -420 Descending Atlanta Center
11:08AM 35.3483 -81.3347 242° Southwest 303 349 12,500 -1,260 Descending Atlanta Center
11:09AM 35.3183 -81.3917 237° Southwest 292 336 11,600 -1,320 Descending Atlanta Center
11:10AM 35.2783 -81.4667 237° Southwest 293 337 10,300 -1,260 Descending Atlanta Center
11:12AM 35.1746 -81.6424 234° Southwest  Level FlightAware Approximate
11:19AM 34.8833 -82.2167 231° Southwest  Level FlightAware Approximate
11:20AM 34.8957 -82.2189 231° Southwest  Level Estimated
11:21AM 34.8957 -82.2189 231° Southwest  Level Estimated
11:22AM 34.8957 -82.2189 231° Southwest  Level Estimated
11:23AM 34.8957 -82.2189 231° Southwest  Level Estimated
11:24AM 34.8957 -82.2189 231° Southwest  Level Estimated
11:25AM 34.8957 -82.2189 231° Southwest  Level Estimated
11:26AM 34.8957 -82.2189 231° Southwest  Level Estimated
11:27AM 34.8957 -82.2189 231° Southwest  Level Estimated